createdAt,value
2019-04-25T00:01:21.582Z,82.00
2019-04-25T00:03:47.980Z,82.30
2019-04-25T00:06:14.497Z,82.40
2019-04-25T00:08:41.322Z,82.30
2019-04-25T00:11:09.145Z,82.20
2019-04-25T00:13:36.299Z,82.40
2019-04-25T00:16:02.792Z,82.40
2019-04-25T00:18:28.938Z,82.40
2019-04-25T00:21:01.205Z,83.00
2019-04-25T00:23:27.693Z,82.90
2019-04-25T00:25:56.862Z,83.10
2019-04-25T00:28:23.024Z,83.20
2019-04-25T00:30:49.310Z,83.10
2019-04-25T00:33:15.574Z,82.90
2019-04-25T00:35:43.475Z,83.20
2019-04-25T00:38:09.820Z,83.50
2019-04-25T00:40:36.110Z,83.40
2019-04-25T00:43:02.277Z,84.30
2019-04-25T00:45:28.449Z,84.10
2019-04-25T00:47:54.620Z,84.50
2019-04-25T00:50:21.917Z,84.30
2019-04-25T00:52:48.361Z,84.70
2019-04-25T00:55:26.155Z,85.10
2019-04-25T00:57:44.788Z,84.90
2019-04-25T01:00:14.317Z,83.90
2019-04-25T01:02:43.424Z,84.80
2019-04-25T01:05:11.649Z,85.00
2019-04-25T01:07:37.972Z,85.10
2019-04-25T01:10:07.518Z,85.30
2019-04-25T01:12:33.741Z,85.50
2019-04-25T01:15:01.538Z,85.70
2019-04-25T01:17:28.397Z,85.80
2019-04-25T01:19:56.919Z,86.20
2019-04-25T01:22:23.236Z,86.00
2019-04-25T01:24:49.518Z,85.70
2019-04-25T01:27:16.188Z,85.70
2019-04-25T01:29:42.363Z,86.40
2019-04-25T01:32:10.446Z,85.60
2019-04-25T01:34:41.895Z,86.60
2019-04-25T01:37:19.189Z,88.70
2019-04-25T01:39:47.531Z,89.10
2019-04-25T01:42:33.783Z,89.20
2019-04-25T01:45:00.430Z,89.60
2019-04-25T01:47:26.752Z,90.00
2019-04-25T01:49:54.582Z,90.10
2019-04-25T01:52:21.050Z,90.10
2019-04-25T01:54:47.243Z,90.00
2019-04-25T01:57:23.992Z,90.00
2019-04-25T01:59:51.353Z,89.50
2019-04-25T02:02:19.673Z,90.00
2019-04-25T02:04:45.953Z,90.20
2019-04-25T02:07:13.508Z,90.10
2019-04-25T02:09:39.997Z,90.10
2019-04-25T02:12:10.605Z,90.20
2019-04-25T02:14:36.980Z,90.20
2019-04-25T02:17:04.561Z,90.30
2019-04-25T02:19:30.944Z,90.10
2019-04-25T02:21:57.814Z,90.00
2019-04-25T02:24:24.095Z,90.20
2019-04-25T02:26:50.302Z,90.40
2019-04-25T02:29:16.690Z,90.70
2019-04-25T02:31:45.040Z,90.50
2019-04-25T02:34:10.930Z,90.60
2019-04-25T02:36:37.232Z,91.00
2019-04-25T02:39:27.209Z,91.20
2019-04-25T02:41:56.003Z,91.00
2019-04-25T02:44:21.450Z,91.10
2019-04-25T02:46:54.526Z,91.00
2019-04-25T02:49:39.673Z,90.90
2019-04-25T02:52:12.908Z,91.10
2019-04-25T02:54:36.175Z,91.00
2019-04-25T02:57:05.170Z,91.00
2019-04-25T02:59:30.426Z,91.10
2019-04-25T03:01:57.591Z,91.10
2019-04-25T03:04:24.901Z,91.10
2019-04-25T03:06:51.108Z,91.10
2019-04-25T03:09:17.291Z,91.00
2019-04-25T03:11:45.149Z,90.80
2019-04-25T03:14:11.548Z,90.70
2019-04-25T03:16:37.826Z,90.60
2019-04-25T03:19:25.927Z,90.70
2019-04-25T03:21:59.766Z,90.80
2019-04-25T03:24:28.554Z,90.70
2019-04-25T03:26:55.340Z,90.70
2019-04-25T03:29:24.669Z,91.00
2019-04-25T03:31:50.852Z,91.10
2019-04-25T03:34:20.628Z,91.30
2019-04-25T03:36:45.136Z,90.90
2019-04-25T03:39:11.605Z,90.70
2019-04-25T03:41:37.781Z,90.90
2019-04-25T03:44:05.189Z,90.70
2019-04-25T03:46:33.355Z,90.80
2019-04-25T03:48:59.688Z,91.20
2019-04-25T03:51:25.849Z,91.20
2019-04-25T03:53:53.484Z,91.20
2019-04-25T03:56:19.889Z,91.10
2019-04-25T03:58:46.071Z,91.00
2019-04-25T04:01:14.982Z,91.10
2019-04-25T04:03:40.668Z,91.10
2019-04-25T04:06:08.292Z,91.10
2019-04-25T04:08:35.778Z,91.00
2019-04-25T04:11:02.011Z,91.00
2019-04-25T04:13:28.210Z,91.00
2019-04-25T04:15:54.385Z,91.10
2019-04-25T04:18:26.910Z,91.20
2019-04-25T04:20:58.213Z,91.20
2019-04-25T04:23:33.245Z,91.20
2019-04-25T04:25:59.769Z,91.20
2019-04-25T04:28:25.936Z,91.10
2019-04-25T04:30:53.958Z,90.70
2019-04-25T04:33:29.612Z,90.70
2019-04-25T04:35:48.645Z,90.60
2019-04-25T04:38:15.515Z,90.50
2019-04-25T04:40:44.271Z,90.70
2019-04-25T04:43:11.735Z,90.80
2019-04-25T04:45:38.029Z,90.50
2019-04-25T04:48:04.253Z,90.30
2019-04-25T04:50:33.681Z,90.20
2019-04-25T04:52:59.941Z,89.90
2019-04-25T04:55:26.135Z,88.20
2019-04-25T04:57:52.340Z,85.70
2019-04-25T05:00:18.889Z,82.50
2019-04-25T05:03:02.126Z,78.40
2019-04-25T05:05:36.796Z,74.70
2019-04-25T05:08:21.787Z,70.40
2019-04-25T05:10:47.976Z,66.20
2019-04-25T05:13:15.740Z,63.50
2019-04-25T05:15:43.018Z,64.20
2019-04-25T05:18:11.542Z,61.70
2019-04-25T05:20:38.587Z,60.60
2019-04-25T05:23:04.802Z,60.90
2019-04-25T05:25:30.964Z,59.00
2019-04-25T05:28:02.457Z,56.80
2019-04-25T05:30:27.272Z,54.80
2019-04-25T05:32:54.364Z,52.20
2019-04-25T05:35:20.697Z,51.90
2019-04-25T05:37:46.936Z,52.50
2019-04-25T05:40:15.113Z,52.30
2019-04-25T05:42:49.711Z,50.50
2019-04-25T05:45:18.914Z,49.10
2019-04-25T05:47:45.860Z,47.70
2019-04-25T05:50:13.872Z,46.50
2019-04-25T05:52:41.353Z,43.20
2019-04-25T05:55:07.825Z,43.50
2019-04-25T05:57:45.249Z,41.80
2019-04-25T06:00:05.512Z,40.50
2019-04-25T06:02:34.018Z,41.00
2019-04-25T06:05:00.374Z,41.00
2019-04-25T06:07:27.914Z,38.80
2019-04-25T06:09:56.082Z,38.40
2019-04-25T06:12:24.757Z,37.80
2019-04-25T06:14:52.959Z,36.30
2019-04-25T06:17:30.682Z,34.90
2019-04-25T06:19:58.382Z,36.10
2019-04-25T06:22:29.385Z,33.90
2019-04-25T06:24:59.988Z,32.80
2019-04-25T06:27:28.498Z,30.80
2019-04-25T06:29:58.968Z,30.40
2019-04-25T06:32:25.812Z,30.50
2019-04-25T06:34:54.252Z,29.70
2019-04-25T06:37:21.331Z,29.30
2019-04-25T06:39:47.675Z,28.80
2019-04-25T06:42:13.934Z,28.50
2019-04-25T06:44:56.872Z,29.40
2019-04-25T06:47:40.112Z,27.80
2019-04-25T06:50:06.613Z,25.70
2019-04-25T06:52:35.270Z,24.60
2019-04-25T06:55:00.871Z,25.60
2019-04-25T06:57:28.997Z,25.00
2019-04-25T06:59:55.139Z,25.50
2019-04-25T07:02:22.740Z,23.90
2019-04-25T07:04:51.554Z,24.20
2019-04-25T07:07:17.789Z,23.60
2019-04-25T07:09:43.994Z,23.80
2019-04-25T07:12:10.227Z,22.80
2019-04-25T07:14:36.855Z,22.40
2019-04-25T07:17:04.326Z,22.20
2019-04-25T07:19:30.710Z,21.90
2019-04-25T07:21:57.385Z,21.60
2019-04-25T07:24:24.842Z,20.90
2019-04-25T07:26:53.880Z,19.60
2019-04-25T07:29:23.536Z,21.00
2019-04-25T07:31:57.844Z,21.40
2019-04-25T07:34:26.506Z,21.10
2019-04-25T07:36:53.631Z,21.40
2019-04-25T07:39:19.858Z,21.20
2019-04-25T07:41:46.031Z,22.00
2019-04-25T07:44:12.228Z,21.80
2019-04-25T07:46:40.019Z,21.70
2019-04-25T07:49:07.630Z,20.20
2019-04-25T07:51:34.583Z,20.20
2019-04-25T07:54:02.333Z,20.60
2019-04-25T07:56:29.410Z,19.50
2019-04-25T07:59:15.555Z,20.70
2019-04-25T08:01:43.484Z,20.10
2019-04-25T08:04:09.984Z,20.00
2019-04-25T08:06:36.149Z,19.80
2019-04-25T08:09:08.456Z,19.20
2019-04-25T08:11:36.232Z,18.70
2019-04-25T08:14:08.370Z,18.20
2019-04-25T08:16:37.214Z,17.60
2019-04-25T08:19:04.081Z,19.10
2019-04-25T08:21:32.112Z,19.30
2019-04-25T08:24:00.244Z,19.50
2019-04-25T08:26:26.429Z,18.90
2019-04-25T08:28:57.512Z,19.50
2019-04-25T08:31:20.969Z,19.90
2019-04-25T08:33:47.182Z,20.60
2019-04-25T08:36:13.734Z,20.60
2019-04-25T08:38:40.337Z,19.10
2019-04-25T08:41:06.558Z,18.80
2019-04-25T08:43:36.330Z,18.70
2019-04-25T08:46:04.108Z,19.10
2019-04-25T08:48:34.331Z,19.10
2019-04-25T08:51:05.135Z,18.70
2019-04-25T08:53:45.192Z,19.40
2019-04-25T08:56:15.801Z,19.70
2019-04-25T08:58:46.660Z,20.80
2019-04-25T09:01:32.434Z,21.40
2019-04-25T09:04:03.613Z,21.70
2019-04-25T09:06:29.645Z,21.80
2019-04-25T09:08:55.866Z,20.80
2019-04-25T09:11:22.112Z,20.80
2019-04-25T09:13:48.273Z,20.80
2019-04-25T09:16:15.520Z,21.40
2019-04-25T09:18:41.865Z,22.40
2019-04-25T09:21:08.058Z,22.10
2019-04-25T09:23:36.461Z,22.00
2019-04-25T09:26:03.965Z,20.60
2019-04-25T09:28:31.281Z,20.50
2019-04-25T09:30:57.454Z,20.80
2019-04-25T09:33:23.673Z,20.00
2019-04-25T09:35:49.853Z,21.10
2019-04-25T09:38:16.115Z,21.70
2019-04-25T09:40:44.147Z,22.80
2019-04-25T09:43:10.526Z,21.60
2019-04-25T09:45:45.192Z,22.00
2019-04-25T09:48:30.954Z,21.90
2019-04-25T09:51:05.628Z,22.00
2019-04-25T09:53:33.966Z,21.10
2019-04-25T09:56:05.176Z,19.00
2019-04-25T09:58:44.059Z,17.20
2019-04-25T10:01:16.029Z,17.00
2019-04-25T10:03:43.524Z,16.50
2019-04-25T10:06:13.938Z,16.70
2019-04-25T10:08:41.056Z,17.30
2019-04-25T10:11:08.722Z,16.30
2019-04-25T10:13:34.936Z,15.60
2019-04-25T10:16:04.025Z,14.90
2019-04-25T10:18:31.117Z,15.20
2019-04-25T10:20:58.389Z,15.10
2019-04-25T10:23:24.633Z,15.50
2019-04-25T10:25:50.900Z,15.80
2019-04-25T10:28:17.085Z,16.20
2019-04-25T10:30:45.538Z,15.60
2019-04-25T10:33:14.128Z,15.60
2019-04-25T10:35:47.912Z,15.60
2019-04-25T10:38:08.897Z,16.20
2019-04-25T10:40:35.281Z,16.70
2019-04-25T10:43:01.533Z,16.80
2019-04-25T10:45:27.723Z,16.60
2019-04-25T10:47:55.269Z,17.90
2019-04-25T10:50:23.714Z,19.10
2019-04-25T10:52:50.158Z,17.70
2019-04-25T10:55:16.497Z,17.00
2019-04-25T10:57:43.682Z,18.50
2019-04-25T11:00:20.566Z,18.70
2019-04-25T11:02:47.506Z,18.00
2019-04-25T11:05:15.786Z,18.80
2019-04-25T11:07:42.007Z,17.50
2019-04-25T11:10:08.357Z,16.00
2019-04-25T11:12:34.514Z,14.40
2019-04-25T11:15:00.967Z,14.40
2019-04-25T11:17:27.124Z,15.40
2019-04-25T11:19:54.307Z,16.70
2019-04-25T11:22:21.472Z,15.90
2019-04-25T11:24:48.567Z,14.90
2019-04-25T11:27:14.922Z,16.00
2019-04-25T11:29:41.651Z,15.60
2019-04-25T11:32:08.901Z,15.70
2019-04-25T11:34:35.057Z,16.00
2019-04-25T11:37:01.439Z,15.30
2019-04-25T11:39:29.602Z,15.60
2019-04-25T11:41:55.986Z,16.30
2019-04-25T11:44:22.139Z,15.40
2019-04-25T11:46:48.350Z,16.50
2019-04-25T11:49:15.270Z,15.80
2019-04-25T11:51:42.654Z,16.20
2019-04-25T11:54:09.472Z,16.50
2019-04-25T11:56:35.837Z,17.30
2019-04-25T11:59:02.348Z,17.30
2019-04-25T12:01:29.586Z,17.80
2019-04-25T12:03:56.916Z,19.30
2019-04-25T12:06:24.361Z,18.70
2019-04-25T12:08:51.479Z,18.70
2019-04-25T12:11:18.123Z,18.90
2019-04-25T12:13:45.999Z,19.80
2019-04-25T12:16:14.277Z,19.20
2019-04-25T12:18:40.720Z,19.20
2019-04-25T12:21:06.979Z,18.50
2019-04-25T12:23:53.560Z,18.10
2019-04-25T12:26:19.878Z,18.40
2019-04-25T12:28:47.231Z,18.60
2019-04-25T12:31:14.798Z,18.10
2019-04-25T12:33:41.300Z,17.90
2019-04-25T12:36:07.753Z,19.00
2019-04-25T12:38:35.473Z,18.60
2019-04-25T12:41:01.885Z,18.80
2019-04-25T12:43:29.952Z,19.40
2019-04-25T12:45:58.305Z,19.00
2019-04-25T12:48:24.623Z,17.50
2019-04-25T12:50:52.051Z,18.20
2019-04-25T12:53:18.464Z,18.40
2019-04-25T12:55:44.667Z,18.40
2019-04-25T12:58:10.932Z,18.90
2019-04-25T13:00:47.547Z,18.90
2019-04-25T13:03:06.944Z,19.30
2019-04-25T13:05:34.211Z,19.00
2019-04-25T13:08:01.122Z,19.70
2019-04-25T13:10:28.515Z,19.90
2019-04-25T13:12:55.454Z,20.10
2019-04-25T13:15:25.234Z,20.40
2019-04-25T13:17:50.181Z,20.20
2019-04-25T13:20:16.353Z,19.90
2019-04-25T13:22:43.721Z,20.20
2019-04-25T13:25:11.886Z,21.00
2019-04-25T13:27:39.973Z,20.50
2019-04-25T13:30:24.890Z,20.50
2019-04-25T13:33:08.597Z,21.00
2019-04-25T13:35:54.394Z,21.70
2019-04-25T13:38:20.850Z,21.30
2019-04-25T13:40:47.235Z,21.20
2019-04-25T13:43:13.462Z,21.00
2019-04-25T13:45:39.688Z,20.50
2019-04-25T13:48:05.960Z,20.50
2019-04-25T13:50:33.986Z,21.20
2019-04-25T13:53:00.565Z,21.70
2019-04-25T13:55:26.721Z,21.90
2019-04-25T13:57:53.384Z,21.90
2019-04-25T14:00:24.750Z,22.40
2019-04-25T14:02:51.942Z,21.60
2019-04-25T14:05:20.301Z,21.50
2019-04-25T14:07:47.393Z,22.50
2019-04-25T14:10:14.293Z,21.90
2019-04-25T14:12:41.205Z,22.50
2019-04-25T14:15:09.905Z,22.50
2019-04-25T14:17:55.111Z,22.60
2019-04-25T14:20:41.666Z,22.20
2019-04-25T14:23:15.488Z,22.00
2019-04-25T14:25:54.318Z,22.50
2019-04-25T14:28:26.150Z,22.00
2019-04-25T14:30:52.928Z,23.50
2019-04-25T14:33:19.113Z,23.00
2019-04-25T14:35:45.472Z,22.70
2019-04-25T14:38:11.661Z,23.00
2019-04-25T14:40:37.818Z,23.20
2019-04-25T14:43:05.090Z,23.70
2019-04-25T14:45:43.016Z,24.10
2019-04-25T14:47:59.357Z,24.00
2019-04-25T14:50:25.789Z,24.20
2019-04-25T14:52:51.997Z,24.00
2019-04-25T14:55:23.670Z,24.40
2019-04-25T14:57:50.944Z,24.70
2019-04-25T15:00:23.981Z,24.40
2019-04-25T15:02:50.204Z,24.50
2019-04-25T15:05:16.409Z,25.00
2019-04-25T15:07:42.994Z,24.60
2019-04-25T15:10:09.496Z,24.70
2019-04-25T15:12:36.798Z,24.80
2019-04-25T15:15:04.593Z,24.90
2019-04-25T15:17:43.466Z,25.10
2019-04-25T15:19:59.829Z,25.30
2019-04-25T15:22:25.989Z,24.80
2019-04-25T15:24:52.156Z,25.20
2019-04-25T15:27:18.381Z,25.00
2019-04-25T15:29:44.571Z,23.70
2019-04-25T15:32:26.184Z,24.60
2019-04-25T15:34:54.650Z,24.30
2019-04-25T15:37:22.728Z,23.80
2019-04-25T15:39:50.828Z,23.80
2019-04-25T15:42:34.104Z,24.30
2019-04-25T15:45:02.600Z,23.90
2019-04-25T15:47:30.756Z,24.60
2019-04-25T15:49:56.955Z,24.30
2019-04-25T15:52:24.237Z,24.10
2019-04-25T15:54:50.411Z,24.30
2019-04-25T15:57:16.609Z,24.60
2019-04-25T15:59:42.829Z,24.80
2019-04-25T16:02:11.088Z,24.40
2019-04-25T16:04:37.286Z,24.80
2019-04-25T16:07:04.384Z,24.50
2019-04-25T16:09:30.557Z,24.50
2019-04-25T16:11:56.824Z,25.20
2019-04-25T16:14:23.118Z,25.10
2019-04-25T16:16:49.384Z,24.90
2019-04-25T16:19:15.685Z,24.90
2019-04-25T16:21:42.203Z,24.90
2019-04-25T16:24:09.565Z,25.20
2019-04-25T16:26:35.734Z,25.30
2019-04-25T16:29:02.118Z,25.60
2019-04-25T16:31:29.164Z,25.60
2019-04-25T16:33:55.594Z,25.50
2019-04-25T16:36:21.775Z,25.90
2019-04-25T16:38:47.928Z,26.50
2019-04-25T16:41:14.205Z,26.70
2019-04-25T16:43:43.074Z,27.10
2019-04-25T16:46:09.460Z,27.00
2019-04-25T16:48:35.696Z,27.30
2019-04-25T16:51:01.996Z,27.50
2019-04-25T16:53:28.254Z,27.30
2019-04-25T16:55:55.511Z,27.30
2019-04-25T16:58:23.326Z,27.60
2019-04-25T17:00:51.629Z,27.70
2019-04-25T17:03:19.197Z,28.20
2019-04-25T17:05:45.554Z,28.20
2019-04-25T17:08:13.069Z,28.60
2019-04-25T17:10:39.503Z,28.70
2019-04-25T17:13:06.504Z,29.10
2019-04-25T17:15:38.378Z,29.20
2019-04-25T17:18:06.776Z,29.50
2019-04-25T17:20:34.946Z,29.40
2019-04-25T17:23:01.137Z,29.70
2019-04-25T17:25:27.493Z,29.90
2019-04-25T17:27:53.864Z,29.90
2019-04-25T17:30:21.169Z,30.50
2019-04-25T17:32:53.857Z,30.60
2019-04-25T17:35:33.658Z,30.60
2019-04-25T17:38:19.765Z,31.00
2019-04-25T17:40:45.963Z,31.10
2019-04-25T17:43:12.129Z,31.20
2019-04-25T17:45:39.117Z,31.40
2019-04-25T17:48:06.090Z,31.70
2019-04-25T17:50:32.932Z,31.80
2019-04-25T17:52:59.248Z,32.10
2019-04-25T17:55:25.414Z,32.50
2019-04-25T17:57:51.609Z,32.50
2019-04-25T18:00:28.689Z,32.90
2019-04-25T18:02:58.871Z,33.10
2019-04-25T18:05:23.002Z,33.10
2019-04-25T18:07:49.193Z,33.40
2019-04-25T18:10:15.477Z,33.60
2019-04-25T18:12:42.231Z,33.60
2019-04-25T18:15:11.053Z,33.90
2019-04-25T18:17:38.068Z,34.10
2019-04-25T18:20:10.796Z,34.40
2019-04-25T18:22:49.078Z,34.60
2019-04-25T18:25:29.549Z,35.10
2019-04-25T18:27:57.616Z,35.10
2019-04-25T18:30:23.907Z,35.30
2019-04-25T18:32:58.006Z,35.50
2019-04-25T18:35:29.273Z,35.70
2019-04-25T18:37:57.336Z,35.90
2019-04-25T18:40:25.447Z,36.00
2019-04-25T18:42:53.621Z,36.10
2019-04-25T18:45:35.865Z,36.10
2019-04-25T18:48:03.173Z,36.30
2019-04-25T18:50:31.237Z,36.50
2019-04-25T18:52:59.334Z,36.60
2019-04-25T18:55:27.399Z,36.80
2019-04-25T18:57:55.506Z,36.90
2019-04-25T19:00:39.189Z,37.00
2019-04-25T19:03:32.007Z,37.30
2019-04-25T19:06:00.096Z,37.70
2019-04-25T19:08:26.281Z,37.60
2019-04-25T19:10:52.709Z,37.80
2019-04-25T19:13:19.037Z,37.90
2019-04-25T19:15:45.529Z,38.00
2019-04-25T19:18:11.741Z,38.10
2019-04-25T19:20:38.975Z,38.20
2019-04-25T19:23:07.308Z,39.00
2019-04-25T19:25:33.594Z,38.30
2019-04-25T19:27:59.865Z,38.50
2019-04-25T19:30:26.125Z,38.40
2019-04-25T19:32:52.302Z,38.50
2019-04-25T19:35:18.481Z,38.60
2019-04-25T19:37:44.800Z,38.80
2019-04-25T19:40:15.898Z,38.80
2019-04-25T19:42:44.530Z,38.80
2019-04-25T19:45:11.264Z,38.90
2019-04-25T19:47:37.444Z,38.90
2019-04-25T19:50:04.496Z,38.90
2019-04-25T19:52:31.061Z,39.00
2019-04-25T19:54:57.470Z,39.30
2019-04-25T19:57:23.653Z,39.50
2019-04-25T19:59:50.660Z,39.80
2019-04-25T20:02:18.969Z,40.00
2019-04-25T20:04:56.148Z,40.10
2019-04-25T20:07:27.194Z,40.20
2019-04-25T20:10:12.185Z,40.40
2019-04-25T20:12:44.004Z,40.60
2019-04-25T20:15:11.364Z,41.20
2019-04-25T20:17:37.543Z,41.40
2019-04-25T20:20:06.037Z,41.10
2019-04-25T20:22:32.228Z,40.90
2019-04-25T20:24:58.397Z,40.60
2019-04-25T20:27:24.614Z,40.60
2019-04-25T20:29:50.818Z,40.40
2019-04-25T20:32:16.994Z,40.70
2019-04-25T20:34:43.149Z,41.40
2019-04-25T20:37:09.371Z,41.10
2019-04-25T20:39:35.633Z,41.20
2019-04-25T20:42:01.796Z,41.40
2019-04-25T20:44:29.096Z,41.40
2019-04-25T20:46:55.265Z,41.10
2019-04-25T20:49:21.426Z,41.30
2019-04-25T20:51:48.460Z,41.30
2019-04-25T20:54:14.710Z,41.10
2019-04-25T20:56:40.887Z,41.00
2019-04-25T20:59:07.095Z,41.40
2019-04-25T21:01:33.297Z,41.70
2019-04-25T21:03:59.518Z,42.30
2019-04-25T21:06:33.677Z,42.70
2019-04-25T21:08:59.866Z,43.10
2019-04-25T21:11:26.033Z,43.50
2019-04-25T21:14:02.714Z,43.50
2019-04-25T21:16:46.850Z,43.70
2019-04-25T21:19:30.064Z,44.20
2019-04-25T21:21:56.572Z,44.40
2019-04-25T21:24:22.866Z,44.50
2019-04-25T21:26:49.050Z,43.80
2019-04-25T21:29:15.349Z,43.30
2019-04-25T21:31:41.659Z,43.10
2019-04-25T21:34:07.875Z,43.20
2019-04-25T21:36:36.241Z,42.90
2019-04-25T21:39:06.837Z,42.60
2019-04-25T21:41:40.382Z,43.30
2019-04-25T21:44:07.186Z,43.00
2019-04-25T21:46:33.549Z,43.70
2019-04-25T21:49:01.026Z,44.10
2019-04-25T21:51:30.154Z,44.80
2019-04-25T21:53:57.292Z,45.60
2019-04-25T21:56:23.922Z,46.10
2019-04-25T21:58:50.120Z,46.40
2019-04-25T22:01:20.902Z,47.40
2019-04-25T22:03:47.269Z,47.00
2019-04-25T22:06:13.968Z,47.10
2019-04-25T22:08:41.768Z,47.10
2019-04-25T22:11:08.048Z,47.20
2019-04-25T22:13:34.828Z,47.40
2019-04-25T22:16:01.669Z,47.40
2019-04-25T22:18:28.276Z,47.50
2019-04-25T22:20:55.801Z,47.80
2019-04-25T22:23:23.165Z,47.80
2019-04-25T22:25:49.736Z,48.20
2019-04-25T22:28:16.289Z,48.40
2019-04-25T22:30:44.695Z,48.60
2019-04-25T22:33:22.165Z,48.70
2019-04-25T22:35:53.289Z,48.80
2019-04-25T22:38:19.860Z,48.90
2019-04-25T22:40:46.036Z,49.00
2019-04-25T22:43:12.640Z,49.40
2019-04-25T22:45:39.129Z,49.80
2019-04-25T22:48:06.664Z,49.30
2019-04-25T22:50:33.849Z,49.60
2019-04-25T22:53:01.215Z,49.90
2019-04-25T22:55:28.113Z,49.80
2019-04-25T22:57:54.336Z,49.70
2019-04-25T23:00:28.212Z,49.70
2019-04-25T23:02:58.243Z,49.70
2019-04-25T23:05:28.810Z,49.60
2019-04-25T23:07:55.268Z,49.70
2019-04-25T23:10:21.856Z,50.10
2019-04-25T23:12:48.015Z,50.30
2019-04-25T23:15:14.580Z,50.80
2019-04-25T23:17:40.763Z,51.50
2019-04-25T23:20:09.566Z,52.10
2019-04-25T23:22:35.876Z,51.40
2019-04-25T23:25:09.887Z,50.50
2019-04-25T23:27:54.627Z,49.90
2019-04-25T23:30:22.912Z,49.80
2019-04-25T23:32:49.068Z,50.20
2019-04-25T23:35:28.077Z,50.00
2019-04-25T23:37:44.456Z,50.00
2019-04-25T23:40:11.623Z,50.40
2019-04-25T23:42:37.902Z,50.90
2019-04-25T23:45:06.658Z,52.80
2019-04-25T23:47:33.960Z,53.80
2019-04-25T23:50:00.561Z,53.80
2019-04-25T23:52:26.790Z,51.60
2019-04-25T23:54:53.048Z,51.10
2019-04-25T23:57:19.748Z,51.20
2019-04-25T23:59:45.908Z,51.50
